createdAt,value
2022-10-01T00:03:29.092Z,3.00
2022-10-01T00:08:33.722Z,3.40
2022-10-01T00:13:36.432Z,2.10
2022-10-01T00:18:40.221Z,2.72
2022-10-01T00:23:42.441Z,2.57
2022-10-01T00:28:48.085Z,2.45
2022-10-01T00:33:56.005Z,3.30
2022-10-01T00:39:02.023Z,4.25
2022-10-01T00:44:28.949Z,2.80
2022-10-01T00:49:34.335Z,3.25
2022-10-01T00:55:03.584Z,3.60
2022-10-01T01:00:08.709Z,2.50
2022-10-01T01:05:13.475Z,3.90
2022-10-01T01:10:20.222Z,3.95
2022-10-01T01:15:43.720Z,2.70
2022-10-01T01:21:08.725Z,3.12
2022-10-01T01:26:27.938Z,2.75
2022-10-01T01:31:39.056Z,3.25
2022-10-01T01:36:46.415Z,3.50
2022-10-01T01:41:55.232Z,3.25
2022-10-01T01:46:58.771Z,4.20
2022-10-01T01:52:13.516Z,4.00
2022-10-01T01:57:19.807Z,4.47
2022-10-01T02:02:33.221Z,5.70
2022-10-01T02:07:42.178Z,4.55
2022-10-01T02:13:05.729Z,4.95
2022-10-01T02:18:30.126Z,4.87
2022-10-01T02:23:41.914Z,4.45
2022-10-01T02:28:45.654Z,3.35
2022-10-01T02:33:50.298Z,4.07
2022-10-01T02:38:54.650Z,3.50
2022-10-01T02:44:03.444Z,4.05
2022-10-01T02:49:05.508Z,3.13
2022-10-01T02:54:30.008Z,4.07
2022-10-01T02:59:32.179Z,3.73
2022-10-01T03:04:34.204Z,3.90
2022-10-01T03:09:39.049Z,3.67
2022-10-01T03:14:41.381Z,2.50
2022-10-01T03:19:43.586Z,3.10
2022-10-01T03:24:45.606Z,2.75
2022-10-01T03:29:48.083Z,3.60
2022-10-01T03:34:50.175Z,3.33
2022-10-01T03:39:52.197Z,3.07
2022-10-01T03:44:55.354Z,3.53
2022-10-01T03:49:58.346Z,3.80
2022-10-01T04:00:03.400Z,3.23
2022-10-01T04:05:13.422Z,3.77
2022-10-01T04:10:15.519Z,3.75
2022-10-01T04:15:17.531Z,3.27
2022-10-01T04:20:19.606Z,2.73
2022-10-01T04:25:21.639Z,3.63
2022-10-01T04:30:25.278Z,3.67
2022-10-01T04:35:28.419Z,3.77
2022-10-01T04:40:32.294Z,3.17
2022-10-01T04:45:34.344Z,2.80
2022-10-01T04:50:36.419Z,3.63
2022-10-01T04:55:38.452Z,3.57
2022-10-01T05:00:40.933Z,4.10
2022-10-01T05:05:43.022Z,3.87
2022-10-01T05:10:45.058Z,3.43
2022-10-01T05:15:52.004Z,3.07
2022-10-01T05:20:54.215Z,2.60
2022-10-01T05:25:56.232Z,2.97
2022-10-01T05:31:03.303Z,2.77
2022-10-01T05:36:06.829Z,2.43
2022-10-01T05:41:09.568Z,2.37
2022-10-01T05:46:11.992Z,2.37
2022-10-01T05:51:15.073Z,3.22
2022-10-01T05:56:17.124Z,2.33
2022-10-01T06:01:19.170Z,2.57
2022-10-01T06:06:30.056Z,2.60
2022-10-01T06:11:35.718Z,2.73
2022-10-01T06:16:38.533Z,2.70
2022-10-01T06:21:40.771Z,2.53
2022-10-01T06:26:43.539Z,2.20
2022-10-01T06:36:47.585Z,1.70
2022-10-01T06:41:49.647Z,1.63
2022-10-01T06:46:52.110Z,2.13
2022-10-01T06:52:12.847Z,1.70
2022-10-01T06:57:15.050Z,1.73
2022-10-01T07:02:27.928Z,2.15
2022-10-01T07:07:35.875Z,2.33
2022-10-01T07:12:38.523Z,2.80
2022-10-01T07:17:49.466Z,2.65
2022-10-01T07:22:57.790Z,2.50
2022-10-01T07:28:02.670Z,1.87
2022-10-01T07:33:04.804Z,2.50
2022-10-01T07:38:07.955Z,1.70
2022-10-01T07:43:10.411Z,1.23
2022-10-01T07:48:14.748Z,1.60
2022-10-01T07:53:17.239Z,1.37
2022-10-01T07:58:24.191Z,1.15
2022-10-01T08:03:26.483Z,1.23
2022-10-01T08:08:30.024Z,1.30
2022-10-01T08:13:32.206Z,1.77
2022-10-01T08:18:35.572Z,1.75
2022-10-01T08:23:38.404Z,1.95
2022-10-01T08:28:41.325Z,1.50
2022-10-01T08:33:44.185Z,1.30
2022-10-01T08:38:48.258Z,2.05
2022-10-01T08:43:51.595Z,0.90
2022-10-01T08:49:02.857Z,1.02
2022-10-01T08:54:19.749Z,0.70
2022-10-01T08:59:41.861Z,1.10
2022-10-01T09:04:44.410Z,1.00
2022-10-01T09:09:57.418Z,1.10
2022-10-01T09:15:15.600Z,0.70
2022-10-01T09:20:26.855Z,1.33
2022-10-01T09:25:29.783Z,1.48
2022-10-01T09:30:32.875Z,1.40
2022-10-01T09:35:44.115Z,0.90
2022-10-01T09:40:49.549Z,1.35
2022-10-01T09:45:51.920Z,1.20
2022-10-01T09:51:13.052Z,3.70
2022-10-01T09:56:23.856Z,2.75
2022-10-01T10:01:51.362Z,44.28
2022-10-01T10:07:05.065Z,6.43
2022-10-01T10:12:18.331Z,6.90
2022-10-01T10:22:26.811Z,8.65
2022-10-01T10:27:30.651Z,4.95
2022-10-01T10:32:33.146Z,5.05
2022-10-01T10:37:38.162Z,28.48
2022-10-01T10:42:47.922Z,62.35
2022-10-01T10:47:52.505Z,64.53
2022-10-01T10:52:55.755Z,41.33
2022-10-01T10:58:10.949Z,21.42
2022-10-01T11:03:16.399Z,12.75
2022-10-01T11:08:22.458Z,12.90
2022-10-01T11:13:46.042Z,12.82
2022-10-01T11:18:50.840Z,8.45
2022-10-01T11:24:07.706Z,8.40
2022-10-01T11:29:23.409Z,6.40
2022-10-01T11:34:44.145Z,2.83
2022-10-01T11:39:52.940Z,2.55
2022-10-01T11:45:05.058Z,1.05
2022-10-01T11:50:39.200Z,1.75
2022-10-01T12:01:18.752Z,1.00
2022-10-01T12:06:50.825Z,1.95
2022-10-01T12:12:10.231Z,2.40
2022-10-01T12:17:18.634Z,0.75
2022-10-01T12:22:27.084Z,0.60
2022-10-01T12:27:53.380Z,9.15
2022-10-01T12:33:12.781Z,0.80
2022-10-01T12:38:56.991Z,2.00
2022-10-01T12:44:21.172Z,0.60
2022-10-01T12:49:54.520Z,0.90
2022-10-01T12:54:59.934Z,4.90
2022-10-01T13:00:18.691Z,1.73
2022-10-01T13:05:57.625Z,3.40
2022-10-01T13:11:27.243Z,2.30
2022-10-01T13:16:49.064Z,1.20
2022-10-01T13:22:07.890Z,1.37
2022-10-01T13:27:32.755Z,0.60
2022-10-01T13:32:50.977Z,0.73
2022-10-01T13:37:53.695Z,0.70
2022-10-01T13:48:11.640Z,0.32
2022-10-01T13:53:17.928Z,0.40
2022-10-01T13:58:41.848Z,0.50
2022-10-01T14:04:28.708Z,0.98
2022-10-01T14:09:42.603Z,1.10
2022-10-01T14:15:18.416Z,0.70
2022-10-01T14:20:30.366Z,0.82
2022-10-01T14:25:54.675Z,0.30
2022-10-01T14:31:29.308Z,0.85
2022-10-01T14:36:35.504Z,0.82
2022-10-01T14:41:37.923Z,0.95
2022-10-01T14:46:40.052Z,0.65
2022-10-01T14:51:55.001Z,1.50
2022-10-01T14:56:57.464Z,1.08
2022-10-01T15:02:11.167Z,1.80
2022-10-01T15:07:16.224Z,1.75
2022-10-01T15:12:21.672Z,1.35
2022-10-01T15:17:27.066Z,2.42
2022-10-01T15:22:30.103Z,1.27
2022-10-01T15:27:33.264Z,0.90
2022-10-01T15:32:35.462Z,0.95
2022-10-01T15:37:39.139Z,2.92
2022-10-01T15:43:12.030Z,1.50
2022-10-01T15:48:40.277Z,0.37
2022-10-01T15:53:42.773Z,0.85
2022-10-01T15:58:49.098Z,1.25
2022-10-01T16:04:11.481Z,0.90
2022-10-01T16:09:23.854Z,1.33
2022-10-01T16:14:56.058Z,0.73
2022-10-01T16:20:38.331Z,0.50
2022-10-01T16:25:44.799Z,1.12
2022-10-01T16:30:51.295Z,1.25
2022-10-01T16:36:07.807Z,1.35
2022-10-01T16:41:10.040Z,0.77
2022-10-01T16:46:12.199Z,1.40
2022-10-01T16:51:14.488Z,1.33
2022-10-01T16:56:16.623Z,1.42
2022-10-01T17:01:19.762Z,1.05
2022-10-01T17:06:21.903Z,1.00
2022-10-01T17:11:25.544Z,1.02
2022-10-01T17:16:29.136Z,3.15
2022-10-01T17:21:34.688Z,2.20
2022-10-01T17:26:43.508Z,3.42
2022-10-01T17:31:53.147Z,2.47
2022-10-01T17:36:55.718Z,1.90
2022-10-01T17:41:57.960Z,1.00
2022-10-01T17:47:00.153Z,0.90
2022-10-01T17:52:02.418Z,1.42
2022-10-01T17:57:05.007Z,1.27
2022-10-01T18:02:29.572Z,1.37
2022-10-01T18:07:30.178Z,2.28
2022-10-01T18:12:33.730Z,6.70
2022-10-01T18:17:42.993Z,23.77
2022-10-01T18:22:45.937Z,2.83
2022-10-01T18:27:50.060Z,1.73
2022-10-01T18:32:57.011Z,2.70
2022-10-01T18:38:29.745Z,4.78
2022-10-01T18:43:37.779Z,8.52
2022-10-01T18:48:42.676Z,2.53
2022-10-01T18:53:54.097Z,2.45
2022-10-01T18:59:28.218Z,1.75
2022-10-01T19:04:36.518Z,1.40
2022-10-01T19:09:52.275Z,1.62
2022-10-01T19:15:14.740Z,1.30
2022-10-01T19:20:52.024Z,1.65
2022-10-01T19:26:17.922Z,2.12
2022-10-01T19:31:24.918Z,2.60
2022-10-01T19:36:40.657Z,2.10
2022-10-01T19:41:48.772Z,1.90
2022-10-01T19:46:55.710Z,1.80
2022-10-01T19:52:00.721Z,2.12
2022-10-01T19:57:18.107Z,2.08
2022-10-01T20:02:37.265Z,2.33
2022-10-01T20:07:45.211Z,2.33
2022-10-01T20:12:57.696Z,2.20
2022-10-01T20:18:20.373Z,2.20
2022-10-01T20:23:51.948Z,2.05
2022-10-01T20:28:57.101Z,3.22
2022-10-01T20:34:21.258Z,2.90
2022-10-01T20:39:35.708Z,2.58
2022-10-01T20:44:39.284Z,2.50
2022-10-01T20:50:25.812Z,3.37
2022-10-01T20:55:38.757Z,3.85
2022-10-01T21:00:43.187Z,2.67
2022-10-01T21:06:05.846Z,2.92
2022-10-01T21:11:16.705Z,3.53
2022-10-01T21:16:18.842Z,3.20
2022-10-01T21:21:46.883Z,2.78
2022-10-01T21:27:23.974Z,2.42
2022-10-01T21:32:41.858Z,3.33
2022-10-01T21:37:54.776Z,3.20
2022-10-01T21:43:10.080Z,2.50
2022-10-01T21:48:32.393Z,2.92
2022-10-01T21:53:43.072Z,2.90
2022-10-01T21:59:03.332Z,2.87
2022-10-01T22:04:32.370Z,3.20
2022-10-01T22:09:59.624Z,2.70
2022-10-01T22:15:07.848Z,3.00
2022-10-01T22:20:12.024Z,1.85
2022-10-01T22:25:14.677Z,2.33
2022-10-01T22:30:23.049Z,2.22
2022-10-01T22:35:43.047Z,2.62
2022-10-01T22:41:07.790Z,2.17
2022-10-01T22:46:24.915Z,2.12
2022-10-01T22:51:36.740Z,1.67
2022-10-01T22:57:16.781Z,2.42
2022-10-01T23:02:39.721Z,2.72
2022-10-01T23:07:51.841Z,2.47
2022-10-01T23:13:12.268Z,2.85
2022-10-01T23:18:52.586Z,2.67
2022-10-01T23:24:17.846Z,3.72
2022-10-01T23:29:41.177Z,2.97
2022-10-01T23:34:58.509Z,3.15
2022-10-01T23:40:21.015Z,1.92
2022-10-01T23:45:52.685Z,2.65
2022-10-01T23:51:01.773Z,2.00
2022-10-01T23:56:41.627Z,2.50
